Time;durP1;ratioP1;P1;durP2;ratioP2;P2;SDS_P1;SDS_P2;PMS_P1;PMS_P2;Temp;Humidity;BMP_temperature;BMP_pressure;BME280_temperature;BME280_humidity;BME280_pressure;Samples;Min_cycle;Max_cycle;Signal;HPM_P1;HPM_P2
2022/02/26 00:01:21;;;;;;;5.80;4.40;;;;;;;4.94;81.15;100887.59;2938841;78;20995;-66
2022/02/26 00:05:23;;;;;;;5.75;5.10;;;;;;;5.00;81.45;100893.44;2972952;79;20991;-66
2022/02/26 00:09:26;;;;;;;5.05;3.85;;;;;;;5.08;81.87;100900.97;2969606;80;21066;-67
2022/02/26 00:13:27;;;;;;;6.17;4.75;;;;;;;5.05;82.70;100902.89;2969834;80;21011;-66
2022/02/26 00:17:29;;;;;;;5.17;4.47;;;;;;;5.03;83.43;100900.35;2973875;79;21029;-67
2022/02/26 00:21:30;;;;;;;6.70;4.20;;;;;;;5.03;84.52;100910.90;2978051;78;21561;-67
2022/02/26 00:25:32;;;;;;;6.87;4.37;;;;;;;5.08;84.77;100917.24;2982673;79;21014;-66
2022/02/26 00:29:34;;;;;;;7.20;5.00;;;;;;;5.08;85.02;100926.02;2981701;79;21062;-67
2022/02/26 00:33:36;;;;;;;9.58;6.15;;;;;;;5.15;85.14;100927.91;2980545;78;21006;-67
2022/02/26 00:37:37;;;;;;;6.95;4.92;;;;;;;5.13;85.62;100933.72;2983021;79;21006;-66
2022/02/26 00:41:39;;;;;;;10.70;6.40;;;;;;;5.16;85.89;100940.16;2982867;79;21011;-66
2022/02/26 00:45:41;;;;;;;8.68;5.72;;;;;;;5.17;86.18;100947.14;2974896;78;21228;-68
2022/02/26 00:49:49;;;;;;;7.60;5.42;;;;;;;5.18;86.70;100954.57;2969884;80;21535;-67
2022/02/26 00:53:51;;;;;;;5.85;5.35;;;;;;;5.16;87.13;100959.94;2974793;78;21011;-67
2022/02/26 00:57:53;;;;;;;8.50;6.15;;;;;;;5.15;87.69;100959.07;2974439;78;21006;-67
2022/02/26 01:01:55;;;;;;;9.55;5.72;;;;;;;5.13;88.15;100966.69;2970334;79;21059;-68
2022/02/26 01:05:56;;;;;;;6.22;5.47;;;;;;;5.19;87.90;100970.78;2966282;79;21042;-67
2022/02/26 01:09:58;;;;;;;6.42;5.40;;;;;;;5.27;87.42;100980.04;2979908;78;21026;-67
2022/02/26 01:14:00;;;;;;;11.40;6.95;;;;;;;5.37;87.23;100983.09;2969568;80;21002;-68
2022/02/26 01:18:01;;;;;;;7.70;6.28;;;;;;;5.40;87.17;100988.69;2969724;80;21069;-68
2022/02/26 01:22:04;;;;;;;10.93;7.17;;;;;;;5.38;87.29;100989.23;2969508;78;21453;-68
2022/02/26 01:26:06;;;;;;;6.47;4.87;;;;;;;5.40;87.29;100996.60;2965554;78;21041;-67
2022/02/26 01:30:09;;;;;;;7.90;4.90;;;;;;;5.13;88.27;101000.97;2955212;79;21543;-67
2022/02/26 01:34:11;;;;;;;8.05;5.75;;;;;;;4.89;90.09;101010.88;2957606;79;21002;-67
2022/02/26 01:38:13;;;;;;;8.10;6.35;;;;;;;4.85;90.58;101008.84;2956798;79;21073;-67
2022/02/26 01:42:17;;;;;;;6.70;5.95;;;;;;;4.77;91.33;101006.56;2979465;78;21050;-66
2022/02/26 01:46:18;;;;;;;11.75;9.40;;;;;;;4.71;91.94;101009.48;2978155;78;20971;-66
2022/02/26 01:50:21;;;;;;;12.00;10.10;;;;;;;4.68;92.28;101014.42;2975692;78;21022;-67
2022/02/26 01:54:22;;;;;;;12.55;9.70;;;;;;;4.67;91.97;101019.78;2978474;78;20994;-67
2022/02/26 01:58:26;;;;;;;14.10;9.90;;;;;;;4.51;92.51;101015.20;2973030;78;21062;-66
2022/02/26 02:02:27;;;;;;;12.70;9.43;;;;;;;4.51;93.04;101020.47;2968557;80;21007;-67
2022/02/26 02:06:29;;;;;;;8.50;6.70;;;;;;;4.46;93.64;101015.00;2969268;80;21361;-67
2022/02/26 02:10:35;;;;;;;9.00;5.47;;;;;;;4.38;94.26;101017.97;2968924;79;21046;-66
2022/02/26 02:14:38;;;;;;;13.75;6.65;;;;;;;4.32;94.01;101024.84;2969397;79;21002;-68
2022/02/26 02:18:42;;;;;;;6.05;4.62;;;;;;;4.33;93.94;101031.37;2969518;79;21023;-67
2022/02/26 02:22:43;;;;;;;5.87;4.65;;;;;;;4.12;93.89;101043.20;2969357;79;21588;-67
2022/02/26 02:26:46;;;;;;;9.50;6.65;;;;;;;4.11;94.17;101034.91;2968806;80;21098;-67
2022/02/26 02:30:47;;;;;;;11.05;8.70;;;;;;;4.09;94.02;101029.33;2968454;79;21851;-67
2022/02/26 02:34:49;;;;;;;13.90;10.63;;;;;;;4.12;93.77;101031.83;2970593;78;21077;-67
2022/02/26 02:38:50;;;;;;;14.20;10.20;;;;;;;4.18;93.92;101027.59;2971280;79;21055;-67
2022/02/26 02:42:54;;;;;;;14.40;9.18;;;;;;;4.34;93.56;101029.13;2976210;79;21027;-67
2022/02/26 02:46:55;;;;;;;35.70;10.05;;;;;;;4.45;93.28;101036.55;2968869;79;21046;-67
2022/02/26 02:50:57;;;;;;;7.92;7.15;;;;;;;4.56;92.86;101045.30;2969297;80;21034;-67
2022/02/26 02:54:58;;;;;;;8.58;5.83;;;;;;;4.64;92.48;101046.28;2969216;79;21038;-68
2022/02/26 02:59:00;;;;;;;9.43;6.65;;;;;;;4.73;91.95;101048.97;2965977;80;21004;-67
2022/02/26 03:03:02;;;;;;;7.67;6.92;;;;;;;4.80;91.56;101047.75;2965877;80;21031;-67
2022/02/26 03:07:04;;;;;;;9.03;6.75;;;;;;;4.83;91.17;101062.10;2965863;79;21027;-67
2022/02/26 03:11:06;;;;;;;10.40;7.70;;;;;;;4.88;90.79;101062.74;2965970;80;21007;-67
2022/02/26 03:15:09;;;;;;;6.92;5.72;;;;;;;4.92;90.48;101068.30;2966376;79;20987;-68
2022/02/26 03:19:10;;;;;;;7.75;6.53;;;;;;;4.97;90.35;101072.88;2965364;79;21042;-68
2022/02/26 03:23:13;;;;;;;7.12;5.97;;;;;;;5.05;90.15;101076.94;2965941;79;21027;-68
2022/02/26 03:27:15;;;;;;;9.00;7.05;;;;;;;5.10;90.37;101085.48;2966112;80;21511;-67
2022/02/26 03:31:16;;;;;;;7.45;6.65;;;;;;;5.08;90.49;101076.34;2960959;80;21049;-68
2022/02/26 03:35:18;;;;;;;8.78;7.05;;;;;;;5.09;90.30;101084.65;2957210;80;21042;-67
2022/02/26 03:39:19;;;;;;;5.60;5.08;;;;;;;5.04;90.16;101093.69;2956814;80;21030;-68
2022/02/26 03:43:21;;;;;;;9.90;7.22;;;;;;;4.69;91.02;101103.11;2956873;80;21748;-68
2022/02/26 03:47:22;;;;;;;12.95;6.55;;;;;;;4.57;92.27;101115.52;2957366;80;21387;-67
2022/02/26 03:51:25;;;;;;;7.12;5.97;;;;;;;4.50;93.12;101106.16;2960800;79;21531;-67
2022/02/26 03:55:27;;;;;;;6.95;5.67;;;;;;;4.44;93.47;101123.11;2955810;80;21003;-67
2022/02/26 03:59:29;;;;;;;8.88;6.45;;;;;;;4.34;94.55;101120.00;2978169;79;21034;-68
2022/02/26 04:03:31;;;;;;;8.23;7.28;;;;;;;4.35;94.70;101128.30;2981667;79;21045;-68
2022/02/26 04:07:32;;;;;;;10.48;8.10;;;;;;;4.34;95.45;101141.08;2982034;79;21013;-67
2022/02/26 04:11:34;;;;;;;7.20;6.50;;;;;;;4.48;95.09;101122.48;2981864;79;21026;-67
2022/02/26 04:15:36;;;;;;;14.65;5.42;;;;;;;4.55;94.86;101123.95;2982636;79;21010;-68
2022/02/26 04:19:38;;;;;;;7.05;4.80;;;;;;;4.51;94.11;101139.48;2982819;79;21002;-67
2022/02/26 04:23:40;;;;;;;9.03;4.70;;;;;;;4.17;93.77;101150.98;2981891;79;21072;-68
2022/02/26 04:27:41;;;;;;;3.90;2.72;;;;;;;4.03;94.12;101158.13;2982203;79;20998;-68
2022/02/26 04:31:43;;;;;;;2.50;1.92;;;;;;;3.91;94.39;101165.19;2982359;79;21022;-68
2022/02/26 04:35:44;;;;;;;2.30;1.35;;;;;;;3.82;94.08;101172.55;2982502;79;20994;-68
2022/02/26 04:39:48;;;;;;;2.72;2.00;;;;;;;3.80;93.75;101178.34;2980538;78;21062;-68
2022/02/26 04:43:50;;;;;;;2.15;2.05;;;;;;;3.80;93.78;101185.36;2974861;79;21072;-67
2022/02/26 04:47:52;;;;;;;2.58;2.37;;;;;;;3.72;94.05;101194.86;2969006;79;21036;-68
2022/02/26 04:51:53;;;;;;;2.50;2.27;;;;;;;3.81;93.95;101206.37;2977870;79;21079;-67
2022/02/26 04:55:55;;;;;;;4.90;2.87;;;;;;;3.81;93.89;101211.63;2978663;80;21004;-67
2022/02/26 04:59:56;;;;;;;3.17;2.87;;;;;;;3.72;94.21;101217.23;2981266;79;21633;-67
2022/02/26 05:03:58;;;;;;;2.65;1.07;;;;;;;3.69;94.59;101222.17;2982132;79;21043;-68
2022/02/26 05:07:59;;;;;;;0.90;0.90;;;;;;;3.62;94.92;101229.04;2981649;79;20980;-67
2022/02/26 05:12:01;;;;;;;1.37;1.05;;;;;;;3.69;94.67;101229.20;2981967;79;21055;-67
2022/02/26 05:16:02;;;;;;;0.93;0.60;;;;;;;3.73;94.65;101236.05;2982369;79;21031;-68
2022/02/26 05:20:05;;;;;;;0.80;0.80;;;;;;;3.82;94.26;101248.88;2982351;79;20941;-67
2022/02/26 05:24:07;;;;;;;1.40;1.25;;;;;;;3.89;93.96;101251.27;2983167;79;21439;-68
2022/02/26 05:28:09;;;;;;;0.82;0.70;;;;;;;3.90;93.70;101259.56;2955986;79;21031;-68
2022/02/26 05:32:10;;;;;;;1.85;0.50;;;;;;;3.92;93.76;101264.31;2982846;79;21028;-68
2022/02/26 05:36:12;;;;;;;1.40;0.98;;;;;;;4.03;93.15;101275.30;2982783;79;21036;-68
2022/02/26 05:40:14;;;;;;;2.83;1.00;;;;;;;4.09;92.08;101276.84;2982630;79;21075;-67
2022/02/26 05:44:16;;;;;;;1.15;0.62;;;;;;;4.13;91.94;101285.89;2982324;79;21055;-68
2022/02/26 05:48:17;;;;;;;0.82;0.78;;;;;;;4.24;91.87;101287.23;2983162;79;21028;-67
2022/02/26 05:52:19;;;;;;;1.52;1.25;;;;;;;4.30;91.24;101293.56;2983246;79;21019;-68
2022/02/26 05:56:21;;;;;;;2.58;1.17;;;;;;;4.34;91.08;101300.45;2982587;78;21022;-68
2022/02/26 06:00:22;;;;;;;1.65;1.55;;;;;;;4.29;91.32;101306.34;2956754;79;21029;-67
2022/02/26 06:04:24;;;;;;;2.02;0.82;;;;;;;4.33;91.51;101305.32;2954736;80;21076;-67
2022/02/26 06:08:26;;;;;;;2.10;1.32;;;;;;;4.33;91.40;101313.23;2954575;80;20989;-67
2022/02/26 06:12:27;;;;;;;2.67;1.75;;;;;;;4.35;91.41;101319.73;2954517;80;21048;-68
2022/02/26 06:16:29;;;;;;;1.42;1.32;;;;;;;4.36;91.33;101322.77;2954893;80;21080;-69
2022/02/26 06:20:31;;;;;;;3.00;1.42;;;;;;;4.37;91.35;101329.75;2954507;80;21047;-67
2022/02/26 06:24:32;;;;;;;3.12;2.65;;;;;;;4.37;91.50;101334.58;2953313;80;21318;-67
2022/02/26 06:28:34;;;;;;;10.20;5.03;;;;;;;4.42;91.62;101343.14;2950234;80;21014;-67
2022/02/26 06:32:37;;;;;;;16.17;7.08;;;;;;;4.49;91.73;101354.75;2939652;80;21031;-67
2022/02/26 06:36:39;;;;;;;15.45;7.67;;;;;;;4.51;92.31;101364.77;2947589;80;21556;-67
2022/02/26 06:40:41;;;;;;;12.20;6.37;;;;;;;4.51;93.43;101364.33;2910577;80;21616;-67
2022/02/26 06:44:42;;;;;;;20.92;8.30;;;;;;;4.54;94.62;101372.11;2911526;81;21012;-68
2022/02/26 06:48:44;;;;;;;18.65;8.75;;;;;;;4.48;96.14;101382.02;2948142;80;21027;-68
2022/02/26 06:52:46;;;;;;;20.60;9.48;;;;;;;4.57;97.21;101390.91;2953705;80;21579;-67
2022/02/26 06:56:48;;;;;;;14.10;7.65;;;;;;;4.62;97.44;101393.34;2954179;80;21039;-67
2022/02/26 07:00:50;;;;;;;19.57;9.38;;;;;;;4.68;97.13;101386.05;2981507;79;21563;-68
2022/02/26 07:04:51;;;;;;;27.32;11.48;;;;;;;4.66;97.33;101405.02;2983057;79;21036;-68
2022/02/26 07:08:53;;;;;;;38.70;12.85;;;;;;;4.74;97.23;101406.05;2982490;79;21006;-67
2022/02/26 07:12:55;;;;;;;34.38;12.10;;;;;;;4.76;96.75;101408.63;2983004;79;21508;-68
2022/02/26 07:16:57;;;;;;;31.25;11.68;;;;;;;4.80;96.87;101408.42;2983315;79;20978;-67
2022/02/26 07:20:58;;;;;;;31.68;13.28;;;;;;;4.87;96.74;101414.32;2982124;79;21034;-67
2022/02/26 07:25:00;;;;;;;29.72;12.68;;;;;;;4.92;96.85;101413.70;2982023;79;21022;-67
2022/02/26 07:29:02;;;;;;;43.13;13.75;;;;;;;5.01;96.63;101426.95;2983433;79;21093;-67
2022/02/26 07:33:07;;;;;;;28.23;12.20;;;;;;;5.08;96.09;101441.62;2982813;79;21042;-67
2022/02/26 07:37:08;;;;;;;24.63;12.73;;;;;;;5.23;95.68;101461.23;2983305;79;21018;-67
2022/02/26 07:41:11;;;;;;;27.85;11.40;;;;;;;5.34;95.14;101467.87;2983763;79;21057;-67
2022/02/26 07:45:13;;;;;;;30.60;11.95;;;;;;;5.33;95.78;101468.80;2980485;79;20969;-67
2022/02/26 07:49:14;;;;;;;28.77;11.40;;;;;;;5.43;95.44;101471.44;2979682;79;21037;-67
2022/02/26 07:53:16;;;;;;;14.55;6.72;;;;;;;5.58;94.42;101473.45;2983022;79;21034;-67
2022/02/26 07:57:21;;;;;;;32.60;11.05;;;;;;;5.45;93.95;101477.51;2984036;79;20987;-66
2022/02/26 08:01:23;;;;;;;20.77;8.45;;;;;;;5.66;93.76;101483.69;2983960;78;21008;-67
2022/02/26 08:05:25;;;;;;;26.15;7.85;;;;;;;5.81;93.37;101484.81;2970235;79;21024;-67
2022/02/26 08:09:26;;;;;;;24.63;8.73;;;;;;;5.72;92.78;101499.27;2982427;79;21026;-67
2022/02/26 08:13:28;;;;;;;19.82;7.75;;;;;;;5.70;92.28;101499.79;2984114;79;21005;-67
2022/02/26 08:17:30;;;;;;;34.55;9.23;;;;;;;5.65;92.05;101505.73;2983906;79;21022;-67
2022/02/26 08:21:34;;;;;;;29.75;8.68;;;;;;;5.66;92.08;101498.66;2978763;79;21005;-67
2022/02/26 08:25:35;;;;;;;16.73;5.70;;;;;;;5.67;92.19;101509.61;2976087;79;21066;-67
2022/02/26 08:29:36;;;;;;;24.12;9.28;;;;;;;5.68;92.30;101517.92;2984043;79;21014;-66
2022/02/26 08:33:38;;;;;;;21.87;9.63;;;;;;;5.81;91.67;101526.22;2978025;78;21049;-67
2022/02/26 08:37:41;;;;;;;28.27;15.50;;;;;;;5.86;91.33;101533.48;2975008;79;21018;-67
2022/02/26 08:41:43;;;;;;;23.22;12.55;;;;;;;5.83;90.57;101543.70;2982604;78;21016;-67
2022/02/26 08:45:45;;;;;;;28.05;10.45;;;;;;;5.89;90.58;101540.39;2977206;78;21803;-66
2022/02/26 08:49:47;;;;;;;16.87;7.30;;;;;;;5.98;91.84;101532.09;2971854;78;21564;-67
2022/02/26 08:53:49;;;;;;;19.40;8.45;;;;;;;5.94;90.23;101545.88;2968501;78;21030;-67
2022/02/26 08:57:51;;;;;;;20.05;7.22;;;;;;;6.10;90.89;101548.79;2980769;78;21556;-67
2022/02/26 09:01:52;;;;;;;23.62;9.03;;;;;;;6.19;89.99;101549.30;2977839;79;20990;-67
2022/02/26 09:05:54;;;;;;;20.88;8.55;;;;;;;6.27;88.86;101553.33;2979223;78;21041;-67
2022/02/26 09:09:55;;;;;;;16.12;6.37;;;;;;;6.29;88.75;101560.73;2929114;79;21039;-67
2022/02/26 09:13:57;;;;;;;19.00;6.87;;;;;;;6.37;88.86;101575.38;2930445;79;21020;-67
2022/02/26 09:17:58;;;;;;;7.10;4.87;;;;;;;6.32;87.89;101582.20;2950232;80;21022;-67
2022/02/26 09:22:03;;;;;;;18.85;9.70;;;;;;;6.45;88.12;101589.14;2907545;81;20999;-67
2022/02/26 09:26:06;;;;;;;32.00;15.65;;;;;;;6.32;87.30;101595.42;2950094;80;21074;-67
2022/02/26 09:30:10;;;;;;;42.17;9.68;;;;;;;6.35;88.08;101603.22;2931700;81;21508;-67
2022/02/26 09:34:13;;;;;;;13.58;5.70;;;;;;;6.45;88.85;101612.05;2953260;79;21441;-67
2022/02/26 09:38:15;;;;;;;15.32;9.03;;;;;;;6.44;88.35;101627.07;2975333;78;20952;-66
2022/02/26 09:42:16;;;;;;;16.37;7.12;;;;;;;6.38;88.11;101622.03;2978673;78;21061;-65
2022/02/26 09:46:18;;;;;;;7.75;4.12;;;;;;;6.47;87.75;101633.98;2976974;78;21037;-66
2022/02/26 09:50:19;;;;;;;22.00;7.78;;;;;;;6.42;87.48;101637.70;2953153;79;21015;-66
2022/02/26 09:54:21;;;;;;;31.05;8.38;;;;;;;6.56;87.47;101640.22;2978507;78;21047;-66
2022/02/26 09:58:24;;;;;;;14.70;5.80;;;;;;;6.64;87.64;101641.22;2983658;79;21554;-66
2022/02/26 10:02:31;;;;;;;11.57;6.05;;;;;;;6.62;86.36;101650.52;2983565;79;21050;-66
2022/02/26 10:06:33;;;;;;;11.30;6.12;;;;;;;6.77;86.32;101656.92;2983631;79;21057;-66
2022/02/26 10:10:40;;;;;;;15.38;7.33;;;;;;;6.82;87.31;101661.56;2983331;78;21018;-66
2022/02/26 10:14:42;;;;;;;18.60;7.70;;;;;;;6.84;86.33;101666.77;2983039;79;21014;-67
2022/02/26 10:18:54;;;;;;;18.90;6.33;;;;;;;6.92;86.71;101665.11;2978895;79;20955;-66
2022/02/26 10:22:57;;;;;;;19.65;5.47;;;;;;;7.02;85.68;101665.56;2965487;79;21010;-66
2022/02/26 10:27:06;;;;;;;15.05;5.92;;;;;;;7.03;86.46;101668.59;2950003;79;20986;-66
2022/02/26 10:31:08;;;;;;;25.68;6.60;;;;;;;7.14;86.00;101676.92;2977623;79;21422;-66
2022/02/26 10:35:11;;;;;;;13.13;6.33;;;;;;;7.21;85.63;101677.03;3015963;79;20978;-66
2022/02/26 10:39:27;;;;;;;34.38;7.53;;;;;;;7.11;83.89;101685.01;2978200;78;21042;-66
2022/02/26 10:43:46;;;;;;;16.17;6.57;;;;;;;7.21;83.58;101682.33;2804161;85;21018;-66
2022/02/26 10:47:48;;;;;;;15.25;5.45;;;;;;;7.13;83.25;101687.95;2803781;85;21325;-66
2022/02/26 10:51:50;;;;;;;19.80;8.15;;;;;;;7.05;82.53;101687.45;2803563;85;21045;-66
2022/02/26 10:55:59;;;;;;;20.48;9.25;;;;;;;7.31;84.48;101693.83;2836925;82;21069;-66
2022/02/26 10:59:59;;;;;;;21.00;7.72;;;;;;;7.43;83.30;101695.90;2865294;82;21173;-66
2022/02/26 11:04:02;;;;;;;20.88;7.80;;;;;;;7.56;84.18;101701.03;2867328;83;21097;-66
2022/02/26 11:08:05;;;;;;;15.68;7.25;;;;;;;7.63;81.71;101706.03;2889225;82;21014;-66
2022/02/26 11:12:12;;;;;;;16.65;5.92;;;;;;;7.58;81.31;101700.48;2856782;82;20999;-67
2022/02/26 11:16:14;;;;;;;17.10;6.50;;;;;;;7.42;80.80;101695.05;2839380;83;21065;-66
2022/02/26 11:20:21;;;;;;;15.43;6.75;;;;;;;7.45;82.32;101701.13;2912861;79;21058;-66
2022/02/26 11:24:20;;;;;;;30.70;7.40;;;;;;;7.44;81.08;101697.61;2944654;79;21019;-66
2022/02/26 11:28:22;;;;;;;17.57;6.08;;;;;;;7.38;81.17;101697.91;2922729;80;21079;-66
2022/02/26 11:32:28;;;;;;;13.62;5.70;;;;;;;7.37;81.39;101693.55;2936157;80;21058;-67
2022/02/26 11:36:57;;;;;;;18.10;6.40;;;;;;;7.28;80.20;101694.37;2938018;80;21012;-66
2022/02/26 11:41:24;;;;;;;26.50;7.17;;;;;;;7.34;80.58;101692.36;2932153;79;21105;-66
2022/02/26 11:45:31;;;;;;;23.35;7.67;;;;;;;7.53;80.29;101691.91;2931956;80;21052;-66
2022/02/26 11:49:34;;;;;;;13.78;5.45;;;;;;;7.66;80.75;101689.54;2932969;80;21010;-66
2022/02/26 11:53:43;;;;;;;13.20;6.05;;;;;;;7.68;79.30;101682.38;2947848;80;21048;-67
2022/02/26 11:57:45;;;;;;;22.07;7.65;;;;;;;7.73;78.42;101680.84;2933711;80;21015;-66
2022/02/26 12:02:06;;;;;;;15.53;7.65;;;;;;;7.75;78.58;101682.95;2961565;79;21027;-66
2022/02/26 12:06:16;;;;;;;14.38;7.08;;;;;;;7.79;78.06;101680.54;2990235;79;21041;-66
2022/02/26 12:10:24;;;;;;;19.52;9.23;;;;;;;8.06;78.94;101673.53;2989268;79;21035;-66
2022/02/26 12:14:30;;;;;;;23.38;7.78;;;;;;;8.00;76.76;101680.44;2989465;79;21039;-65
2022/02/26 12:18:46;;;;;;;18.10;6.65;;;;;;;8.06;77.56;101685.45;2997230;79;21883;-67
2022/02/26 12:22:50;;;;;;;12.98;6.53;;;;;;;8.12;76.33;101689.12;3004355;79;21058;-68
2022/02/26 12:27:08;;;;;;;15.72;8.48;;;;;;;8.26;74.95;101690.24;2930288;81;21035;-67
2022/02/26 12:31:09;;;;;;;26.17;6.95;;;;;;;8.36;75.66;101688.83;2935131;80;21031;-66
2022/02/26 12:35:11;;;;;;;15.00;7.22;;;;;;;8.52;75.55;101684.12;2934760;81;20991;-67
2022/02/26 12:39:13;;;;;;;24.67;9.75;;;;;;;8.65;74.57;101689.20;2928778;81;21061;-67
2022/02/26 12:43:15;;;;;;;19.67;7.70;;;;;;;8.64;73.83;101683.95;2999314;79;21412;-67
2022/02/26 12:47:17;;;;;;;15.88;8.08;;;;;;;8.66;74.15;101688.70;2996313;78;20995;-68
2022/02/26 12:51:19;;;;;;;14.90;5.87;;;;;;;8.50;73.51;101683.34;2990695;79;20959;-67
2022/02/26 12:55:21;;;;;;;12.55;5.78;;;;;;;8.52;74.35;101678.33;2972869;79;21018;-66
2022/02/26 12:59:23;;;;;;;17.57;5.58;;;;;;;8.45;73.70;101676.91;2957557;79;21018;-68
2022/02/26 13:03:26;;;;;;;17.73;5.30;;;;;;;8.43;73.30;101676.97;2949375;80;21042;-68
2022/02/26 13:07:28;;;;;;;14.70;6.42;;;;;;;8.32;71.62;101671.82;2949697;80;20975;-67
2022/02/26 13:11:30;;;;;;;17.67;7.15;;;;;;;8.31;72.26;101670.10;2950212;80;20990;-68
2022/02/26 13:15:32;;;;;;;17.30;5.75;;;;;;;8.32;74.40;101677.99;2950136;80;20979;-67
2022/02/26 13:19:33;;;;;;;10.40;5.90;;;;;;;8.39;72.26;101684.69;2950063;80;21006;-67
2022/02/26 13:23:35;;;;;;;18.57;6.05;;;;;;;8.39;71.53;101690.00;2950092;80;21015;-68
2022/02/26 13:27:37;;;;;;;18.15;7.78;;;;;;;8.33;72.38;101687.66;2950213;80;21015;-68
2022/02/26 13:31:40;;;;;;;13.83;5.87;;;;;;;8.41;71.44;101694.75;2949997;80;20998;-68
2022/02/26 13:35:41;;;;;;;22.48;6.08;;;;;;;8.42;72.68;101692.97;2949980;80;20998;-68
2022/02/26 13:39:46;;;;;;;18.30;6.45;;;;;;;8.44;72.64;101691.94;2949580;80;21061;-68
2022/02/26 13:44:00;;;;;;;14.25;6.97;;;;;;;8.41;71.20;101696.56;2949777;80;21105;-68
2022/02/26 13:48:12;;;;;;;17.27;6.50;;;;;;;8.44;71.47;101701.70;2950177;80;21038;-67
2022/02/26 13:52:17;;;;;;;14.00;6.10;;;;;;;8.33;71.64;101704.02;2949734;80;21002;-67
2022/02/26 13:56:26;;;;;;;22.70;10.40;;;;;;;8.36;71.89;101714.50;2950004;80;20998;-67
2022/02/26 14:00:28;;;;;;;17.05;8.73;;;;;;;8.25;76.11;101718.98;2942427;80;20986;-67
2022/02/26 14:04:31;;;;;;;15.90;7.78;;;;;;;8.04;77.95;101714.28;2952203;80;21713;-67
2022/02/26 14:08:32;;;;;;;28.92;13.98;;;;;;;8.00;77.83;101713.56;2952585;80;21054;-68
2022/02/26 14:12:35;;;;;;;31.07;9.20;;;;;;;8.04;77.85;101707.17;2952452;80;20980;-67
2022/02/26 14:16:37;;;;;;;17.25;7.72;;;;;;;8.23;77.82;101721.73;2956421;80;20971;-67
2022/02/26 14:20:39;;;;;;;13.70;6.60;;;;;;;8.41;76.86;101707.17;2958678;80;21054;-67
2022/02/26 14:24:45;;;;;;;12.25;6.62;;;;;;;8.61;76.44;101722.09;2959257;79;21015;-67
2022/02/26 14:28:48;;;;;;;12.98;5.72;;;;;;;8.71;75.20;101723.81;2959446;80;21004;-67
2022/02/26 14:32:57;;;;;;;18.10;6.72;;;;;;;8.66;74.05;101717.44;2960033;79;21000;-67
2022/02/26 14:36:59;;;;;;;28.32;7.87;;;;;;;8.68;71.57;101727.50;2960217;79;21074;-67
2022/02/26 14:41:06;;;;;;;16.45;6.65;;;;;;;8.64;69.25;101734.35;2960380;79;21023;-68
2022/02/26 14:45:12;;;;;;;12.37;6.08;;;;;;;8.62;69.41;101735.75;2959199;79;20988;-67
2022/02/26 14:49:13;;;;;;;14.53;6.57;;;;;;;8.55;69.78;101743.18;2959976;79;21034;-67
2022/02/26 14:53:15;;;;;;;18.20;7.25;;;;;;;8.48;70.53;101745.70;2959993;80;21004;-67
2022/02/26 14:57:16;;;;;;;25.88;9.60;;;;;;;8.46;72.38;101756.01;2960120;79;21595;-67
2022/02/26 15:01:18;;;;;;;18.40;7.45;;;;;;;8.37;72.08;101752.02;2936358;79;21020;-67
2022/02/26 15:05:20;;;;;;;22.37;10.20;;;;;;;8.35;72.55;101758.70;2916230;81;21008;-68
2022/02/26 15:09:22;;;;;;;17.27;5.95;;;;;;;8.31;72.77;101765.09;2916276;81;20992;-68
2022/02/26 15:13:24;;;;;;;17.15;8.28;;;;;;;8.22;71.89;101760.22;2915942;81;21001;-67
2022/02/26 15:17:26;;;;;;;18.85;6.42;;;;;;;8.13;71.83;101769.02;2915788;81;21438;-68
2022/02/26 15:21:28;;;;;;;14.93;6.42;;;;;;;8.06;72.70;101763.64;2915480;81;21102;-68
2022/02/26 15:25:30;;;;;;;16.42;7.47;;;;;;;7.97;72.78;101770.68;2916160;81;20996;-68
2022/02/26 15:29:34;;;;;;;14.25;7.28;;;;;;;7.97;73.68;101779.95;2915735;81;21908;-68
2022/02/26 15:33:36;;;;;;;29.27;9.28;;;;;;;8.00;74.71;101779.36;2915891;81;20992;-67
2022/02/26 15:37:38;;;;;;;16.67;8.70;;;;;;;8.04;74.64;101793.30;2915835;81;21008;-68
2022/02/26 15:41:40;;;;;;;19.45;7.65;;;;;;;8.01;74.87;101788.15;2915822;81;21063;-68
2022/02/26 15:45:42;;;;;;;27.73;9.88;;;;;;;8.01;75.09;101794.77;2915928;81;21016;-67
2022/02/26 15:49:43;;;;;;;21.48;12.75;;;;;;;8.00;74.90;101814.26;2915659;81;21070;-67
2022/02/26 15:53:46;;;;;;;23.25;10.88;;;;;;;7.97;75.48;101817.05;2915562;81;20992;-67
2022/02/26 15:57:47;;;;;;;13.38;7.28;;;;;;;7.96;76.04;101821.52;2915657;81;20984;-67
2022/02/26 16:01:49;;;;;;;10.18;5.60;;;;;;;7.72;75.04;101832.27;2946423;79;21599;-67
2022/02/26 16:05:51;;;;;;;10.68;5.35;;;;;;;7.52;74.16;101841.58;2967746;80;21550;-67
2022/02/26 16:09:53;;;;;;;10.13;5.87;;;;;;;7.31;75.35;101835.45;2966335;79;21015;-66
2022/02/26 16:13:54;;;;;;;7.00;4.35;;;;;;;7.06;76.51;101849.26;2965635;79;21094;-67
2022/02/26 16:17:56;;;;;;;10.65;5.30;;;;;;;6.91;77.64;101848.57;2966077;80;20980;-67
2022/02/26 16:21:59;;;;;;;18.10;6.10;;;;;;;6.83;77.83;101847.11;2967003;80;21023;-67
2022/02/26 16:26:01;;;;;;;7.17;5.17;;;;;;;6.85;77.87;101851.88;2966554;79;21027;-67
2022/02/26 16:30:25;;;;;;;6.58;4.78;;;;;;;6.88;77.87;101852.22;2966958;79;21027;-67
2022/02/26 16:34:28;;;;;;;7.12;5.17;;;;;;;6.92;77.88;101864.84;2972515;79;21056;-68
2022/02/26 16:38:30;;;;;;;9.10;5.25;;;;;;;6.95;77.75;101868.67;2983333;79;21012;-67
2022/02/26 16:42:32;;;;;;;19.05;7.45;;;;;;;6.95;76.92;101874.84;2983219;79;21044;-67
2022/02/26 16:46:33;;;;;;;16.45;10.82;;;;;;;6.93;76.21;101876.69;2981985;79;21012;-67
2022/02/26 16:50:35;;;;;;;20.92;10.93;;;;;;;6.88;76.38;101880.00;2980787;78;21047;-67
2022/02/26 16:54:38;;;;;;;12.20;7.22;;;;;;;6.85;75.99;101895.97;2961953;78;29211;-66
2022/02/26 16:58:40;;;;;;;16.75;7.33;;;;;;;6.89;76.46;101902.88;2935612;79;21070;-66
2022/02/26 17:02:43;;;;;;;17.00;6.45;;;;;;;6.94;76.93;101914.13;2948578;79;21062;-66
2022/02/26 17:06:45;;;;;;;15.78;10.35;;;;;;;6.92;76.98;101918.63;2981700;78;21048;-65
2022/02/26 17:10:46;;;;;;;17.48;10.00;;;;;;;6.89;76.50;101915.23;2975313;78;21434;-66
2022/02/26 17:14:49;;;;;;;20.08;12.45;;;;;;;6.88;76.54;101921.00;2962501;78;21051;-66
2022/02/26 17:18:51;;;;;;;22.30;12.55;;;;;;;6.89;76.68;101920.08;2963258;78;21004;-66
2022/02/26 17:22:53;;;;;;;19.25;12.50;;;;;;;6.87;76.69;101928.51;2977580;78;21058;-67
2022/02/26 17:26:54;;;;;;;24.82;15.48;;;;;;;6.91;76.76;101935.88;2977562;78;21026;-67
2022/02/26 17:30:56;;;;;;;21.20;13.98;;;;;;;6.97;76.84;101932.52;2966672;79;20971;-67
2022/02/26 17:34:58;;;;;;;24.87;18.52;;;;;;;6.99;76.95;101929.83;2972202;78;21049;-67
2022/02/26 17:39:00;;;;;;;30.00;16.48;;;;;;;6.78;77.43;101940.79;2976165;79;20987;-66
2022/02/26 17:43:02;;;;;;;16.07;9.20;;;;;;;6.73;77.60;101944.08;2981569;79;21320;-66
2022/02/26 17:47:05;;;;;;;12.28;8.23;;;;;;;6.68;77.83;101941.61;2981351;79;21046;-67
2022/02/26 17:51:09;;;;;;;15.80;8.00;;;;;;;6.65;78.49;101941.26;2982334;79;21046;-67
2022/02/26 17:55:12;;;;;;;19.15;8.70;;;;;;;6.49;78.93;101944.96;2979309;78;21058;-69
2022/02/26 17:59:15;;;;;;;11.40;7.85;;;;;;;6.47;78.74;101949.89;2978817;78;20980;-67
2022/02/26 18:03:18;;;;;;;25.72;8.83;;;;;;;6.49;78.70;101949.41;2961518;79;21014;-67
2022/02/26 18:07:20;;;;;;;15.05;7.70;;;;;;;6.55;78.80;101947.84;2957897;79;21765;-67
2022/02/26 18:11:21;;;;;;;16.23;8.35;;;;;;;6.59;78.49;101961.34;2957290;79;21054;-67
2022/02/26 18:15:24;;;;;;;10.43;7.08;;;;;;;6.54;78.54;101961.50;2944473;80;21035;-67
2022/02/26 18:19:26;;;;;;;11.48;6.53;;;;;;;6.36;79.90;101973.65;2900618;81;21041;-67
2022/02/26 18:23:28;;;;;;;14.50;6.72;;;;;;;6.19;80.42;101968.99;2924680;80;21008;-66
2022/02/26 18:27:31;;;;;;;11.00;6.25;;;;;;;6.17;80.25;101962.88;2939113;80;21004;-65
2022/02/26 18:31:32;;;;;;;11.25;7.60;;;;;;;6.16;80.09;101974.36;2951872;80;21136;-66
2022/02/26 18:35:34;;;;;;;9.45;6.42;;;;;;;6.17;80.15;101974.77;2905155;82;21037;-65
2022/02/26 18:39:36;;;;;;;21.65;12.75;;;;;;;6.18;79.77;101984.41;2929996;80;21078;-65
2022/02/26 18:43:38;;;;;;;20.62;11.65;;;;;;;6.17;79.81;101988.45;2924758;80;20943;-65
2022/02/26 18:47:45;;;;;;;19.35;8.60;;;;;;;6.23;79.89;101988.22;2959296;79;21070;-67
2022/02/26 18:51:47;;;;;;;;;;;;;;;6.14;79.47;101992.94;2942723;80;21051;-67